Time;durP1;ratioP1;P1;durP2;ratioP2;P2;SDS_P1;SDS_P2;PMS_P1;PMS_P2;Temp;Humidity;BMP_temperature;BMP_pressure;BME280_temperature;BME280_humidity;BME280_pressure;Samples;Min_cycle;Max_cycle;Signal;HPM_P1;HPM_P2
2022/12/08 00:01:29;;;;;;;0.10;0.10;;;3.00;99.90;;;2.43;100.00;99462.00;5007720;28;20247;-78
2022/12/08 00:04:01;;;;;;;0.10;0.10;;;2.50;99.90;;;2.39;100.00;99457.56;5003521;28;20259;-78
2022/12/08 00:09:28;;;;;;;0.20;0.20;;;2.50;99.90;;;2.21;100.00;99462.28;5000380;28;20232;-76
2022/12/08 00:12:15;;;;;;;0.10;0.10;;;2.40;99.90;;;2.13;100.00;99458.59;5005882;28;20311;-79
2022/12/08 00:14:45;;;;;;;0.10;0.10;;;2.60;99.90;;;2.15;100.00;99469.94;5006776;28;20286;-79
2022/12/08 00:17:14;;;;;;;0.20;0.20;;;2.30;99.90;;;2.12;100.00;99468.13;5004472;28;20792;-79
2022/12/08 00:19:42;;;;;;;0.10;0.10;;;2.40;99.90;;;2.05;100.00;99467.94;5004665;28;20667;-79
2022/12/08 00:22:11;;;;;;;0.10;0.10;;;2.20;99.90;;;2.10;100.00;99474.16;5010083;28;20241;-80
2022/12/08 00:24:40;;;;;;;0.20;0.20;;;2.80;99.90;;;2.09;100.00;99473.28;5003672;28;20263;-80
2022/12/08 00:27:09;;;;;;;0.10;0.10;;;2.30;99.90;;;2.11;100.00;99468.97;5035901;23;20294;-76
2022/12/08 00:29:36;;;;;;;0.10;0.10;;;2.60;99.90;;;2.14;100.00;99476.00;5023388;28;20301;-77
2022/12/08 00:32:05;;;;;;;0.10;0.10;;;2.30;99.90;;;2.13;100.00;99474.25;5008014;28;20234;-75
2022/12/08 00:34:33;;;;;;;0.20;0.20;;;2.30;99.90;;;2.12;100.00;99462.03;5004018;28;20290;-76
2022/12/08 00:37:00;;;;;;;0.15;0.15;;;2.30;99.90;;;2.16;100.00;99464.78;5005658;28;20267;-74
2022/12/08 00:39:27;;;;;;;0.20;0.20;;;2.30;99.90;;;2.21;100.00;99467.50;5005154;28;20227;-76
2022/12/08 00:42:12;;;;;;;0.10;0.10;;;2.50;99.90;;;2.27;100.00;99472.88;5005088;28;20224;-75
2022/12/08 00:44:41;;;;;;;0.10;0.10;;;2.40;99.90;;;2.29;100.00;99465.09;5005098;28;20235;-77
2022/12/08 00:47:09;;;;;;;0.10;0.10;;;2.50;99.90;;;2.31;100.00;99458.19;5003469;28;20322;-75
2022/12/08 00:49:36;;;;;;;0.10;0.10;;;2.60;99.90;;;2.32;100.00;99466.06;5002349;28;20250;-76
2022/12/08 00:52:03;;;;;;;0.10;0.10;;;2.50;99.90;;;2.30;100.00;99462.53;5002750;28;20306;-76
2022/12/08 00:54:30;;;;;;;0.75;0.75;;;2.50;99.90;;;2.33;100.00;99467.81;5003567;28;20480;-79
2022/12/08 00:56:57;;;;;;;0.10;0.10;;;2.60;99.90;;;2.38;100.00;99470.56;5003829;28;20318;-75
2022/12/08 00:59:24;;;;;;;0.17;0.17;;;2.50;99.90;;;2.41;100.00;99475.84;5006269;28;20700;-75
2022/12/08 01:01:51;;;;;;;0.10;0.10;;;2.60;99.90;;;2.44;100.00;99471.59;5003217;28;20224;-74
2022/12/08 01:04:19;;;;;;;0.10;0.10;;;2.70;99.90;;;2.45;100.00;99470.75;4994189;28;20293;-75
2022/12/08 01:06:47;;;;;;;0.10;0.10;;;2.60;99.90;;;2.48;100.00;99481.28;4992168;28;20319;-75
2022/12/08 01:09:16;;;;;;;0.17;0.17;;;2.60;99.90;;;2.47;100.00;99487.34;5007945;28;20224;-74
2022/12/08 01:11:44;;;;;;;0.10;0.10;;;2.60;99.90;;;2.48;100.00;99483.00;5000922;28;20687;-76
2022/12/08 01:14:12;;;;;;;0.20;0.20;;;2.70;99.90;;;2.53;100.00;99487.50;5003006;28;20240;-76
2022/12/08 01:16:42;;;;;;;0.10;0.10;;;2.70;99.90;;;2.53;100.00;99478.78;4991131;28;20311;-77
2022/12/08 01:19:16;;;;;;;0.10;0.10;;;2.70;99.90;;;2.55;100.00;99485.81;5005024;28;20231;-77
2022/12/08 01:21:44;;;;;;;0.10;0.10;;;2.80;99.90;;;2.57;100.00;99480.63;5005121;28;20415;-77
2022/12/08 01:24:20;;;;;;;0.10;0.10;;;2.70;99.90;;;2.56;100.00;99484.06;4985962;28;20231;-78
2022/12/08 01:26:49;;;;;;;0.10;0.10;;;2.70;99.90;;;2.58;100.00;99483.28;5085971;22;20266;-74
2022/12/08 01:29:16;;;;;;;0.10;0.10;;;2.80;99.90;;;2.61;100.00;99481.63;5016058;28;20223;-74
2022/12/08 01:31:44;;;;;;;0.10;0.10;;;2.80;99.90;;;2.61;100.00;99474.66;5007607;28;20238;-77
2022/12/08 01:34:11;;;;;;;0.10;0.10;;;2.80;99.90;;;2.62;100.00;99473.81;5007396;28;20298;-77
2022/12/08 01:36:39;;;;;;;0.10;0.10;;;2.80;99.90;;;2.62;100.00;99478.16;5010302;28;20321;-77
2022/12/08 01:39:13;;;;;;;0.10;0.10;;;2.80;99.90;;;2.56;100.00;99457.97;5008737;28;20266;-75
2022/12/08 01:41:42;;;;;;;0.10;0.10;;;2.70;99.90;;;2.53;100.00;99460.50;5011490;28;20319;-74
2022/12/08 01:44:12;;;;;;;0.10;0.10;;;2.70;99.90;;;2.54;100.00;99457.94;5008348;28;20259;-73
2022/12/08 01:46:44;;;;;;;0.60;0.60;;;2.90;99.90;;;2.52;100.00;99448.31;5007805;28;20315;-74
2022/12/08 01:49:15;;;;;;;0.10;0.10;;;2.70;99.90;;;2.52;100.00;99457.03;5008199;28;20227;-80
2022/12/08 01:52:10;;;;;;;0.10;0.10;;;2.90;99.90;;;2.52;100.00;99450.91;5006414;28;20286;-76
2022/12/08 01:54:53;;;;;;;0.10;0.10;;;2.70;99.90;;;2.52;100.00;99443.97;5023479;28;20253;-73
2022/12/08 01:57:30;;;;;;;0.10;0.10;;;2.70;99.90;;;2.50;100.00;99442.16;5009442;28;20229;-80
2022/12/08 02:00:07;;;;;;;0.10;0.10;;;2.70;99.90;;;2.50;100.00;99431.72;5024079;28;20657;-76
2022/12/08 02:03:05;;;;;;;0.13;0.13;;;2.80;99.90;;;2.51;100.00;99428.28;5006775;28;20285;-76
2022/12/08 02:05:36;;;;;;;0.10;0.10;;;2.70;99.90;;;2.53;100.00;99432.69;5006191;28;20310;-81
2022/12/08 02:08:09;;;;;;;0.10;0.10;;;2.60;99.90;;;2.52;100.00;99419.59;5006519;28;20259;-75
2022/12/08 02:10:41;;;;;;;0.10;0.10;;;2.70;99.90;;;2.46;100.00;99420.34;5009115;28;20608;-74
2022/12/08 02:13:13;;;;;;;0.10;0.10;;;2.70;99.90;;;2.47;100.00;99421.22;5007037;28;20255;-73
2022/12/08 02:16:11;;;;;;;0.10;0.10;;;2.70;99.90;;;2.43;100.00;99408.94;5004447;28;20266;-76
2022/12/08 02:18:55;;;;;;;0.52;0.52;;;2.60;99.90;;;2.40;100.00;99409.75;5007786;28;20301;-76
2022/12/08 02:21:59;;;;;;;0.20;0.20;;;2.60;99.90;;;2.39;100.00;99413.19;5003970;28;20587;-80
2022/12/08 02:24:37;;;;;;;0.10;0.10;;;2.60;99.90;;;2.42;100.00;99417.59;5006801;28;20309;-79
2022/12/08 02:27:10;;;;;;;0.10;0.10;;;2.60;99.90;;;2.44;100.00;99408.97;5023643;23;20229;-79
2022/12/08 02:29:52;;;;;;;0.10;0.10;;;2.60;99.90;;;2.40;100.00;99414.97;5042874;28;20341;-78
2022/12/08 02:33:08;;;;;;;0.10;0.10;;;2.60;99.90;;;2.36;100.00;99415.72;5023142;28;20384;-78
2022/12/08 02:36:28;;;;;;;0.10;0.10;;;2.50;99.90;;;2.40;100.00;99427.13;5039155;28;20242;-79
2022/12/08 02:39:26;;;;;;;0.10;0.10;;;2.50;99.90;;;2.47;100.00;99429.94;5029488;28;20285;-78
2022/12/08 02:42:10;;;;;;;0.10;0.10;;;2.60;99.90;;;2.50;100.00;99440.44;5025392;28;20226;-76
2022/12/08 02:44:47;;;;;;;0.10;0.10;;;2.60;99.90;;;2.54;100.00;99444.00;5023777;28;20293;-77
2022/12/08 02:47:19;;;;;;;0.10;0.10;;;2.70;99.90;;;2.53;100.00;99444.84;5030053;28;20282;-76
2022/12/08 02:49:47;;;;;;;0.10;0.10;;;2.70;99.90;;;2.60;100.00;99443.28;5022757;28;20234;-77
2022/12/08 02:52:14;;;;;;;0.10;0.10;;;2.70;99.90;;;2.59;100.00;99439.78;5024318;28;20281;-80
2022/12/08 02:54:46;;;;;;;0.15;0.15;;;2.70;99.90;;;2.53;100.00;99434.41;5040576;28;20245;-76
2022/12/08 02:57:35;;;;;;;0.10;0.10;;;2.70;99.90;;;2.47;100.00;99424.72;5026298;28;20289;-76
2022/12/08 03:00:56;;;;;;;0.20;0.20;;;2.70;99.90;;;2.52;100.00;99422.22;5051975;28;20701;-76
2022/12/08 03:03:37;;;;;;;0.10;0.10;;;2.70;99.90;;;2.52;100.00;99420.47;5040172;28;20666;-75
2022/12/08 03:06:34;;;;;;;0.20;0.20;;;2.70;99.90;;;2.46;100.00;99406.41;5028594;28;20310;-76
2022/12/08 03:09:16;;;;;;;0.10;0.10;;;2.60;99.90;;;2.49;100.00;99417.78;5031947;28;20250;-76
2022/12/08 03:12:00;;;;;;;0.30;0.30;;;2.60;99.90;;;2.50;100.00;99410.84;5021737;28;20272;-75
2022/12/08 03:14:29;;;;;;;0.10;0.10;;;2.70;99.90;;;2.55;100.00;99417.06;5027052;28;20320;-76
2022/12/08 03:16:58;;;;;;;0.10;0.10;;;2.70;99.90;;;2.65;100.00;99413.88;5007791;28;20251;-76
2022/12/08 03:19:34;;;;;;;0.20;0.20;;;2.80;99.90;;;2.70;100.00;99411.38;5026296;28;20230;-76
2022/12/08 03:22:04;;;;;;;0.10;0.10;;;2.80;99.90;;;2.74;100.00;99398.44;5025195;28;20305;-75
2022/12/08 03:24:38;;;;;;;0.10;0.10;;;2.90;99.90;;;2.79;100.00;99393.31;5024112;28;20234;-75
2022/12/08 03:27:19;;;;;;;0.10;0.10;;;3.00;99.90;;;2.75;100.00;99394.97;5082049;23;20229;-75
2022/12/08 03:29:50;;;;;;;0.10;0.10;;;2.90;99.90;;;2.76;100.00;99404.56;4967276;28;20320;-73
2022/12/08 03:32:50;;;;;;;0.10;0.10;;;2.90;99.90;;;2.73;100.00;99387.94;4984456;28;20228;-73
2022/12/08 03:35:24;;;;;;;0.10;0.10;;;2.90;99.90;;;2.67;100.00;99393.03;4985382;28;20651;-73
2022/12/08 03:37:51;;;;;;;0.10;0.10;;;2.80;99.90;;;2.57;100.00;99387.56;4981638;28;20232;-74
2022/12/08 03:40:20;;;;;;;0.10;0.10;;;2.80;99.90;;;2.57;100.00;99390.16;4958464;28;20323;-73
2022/12/08 03:42:47;;;;;;;0.10;0.10;;;2.90;99.90;;;2.56;100.00;99380.56;4954309;28;20241;-72
2022/12/08 03:47:42;;;;;;;0.10;0.10;;;2.70;99.90;;;2.51;100.00;99378.69;5007616;28;20288;-73
2022/12/08 03:50:10;;;;;;;0.15;0.15;;;2.60;99.90;;;2.50;100.00;99380.41;4988183;28;20567;-74
2022/12/08 03:52:37;;;;;;;0.10;0.10;;;2.70;99.90;;;2.49;100.00;99383.88;5014890;28;20233;-74
2022/12/08 03:55:05;;;;;;;0.10;0.10;;;2.70;99.90;;;2.49;100.00;99383.00;5007656;28;20293;-74
2022/12/08 03:57:33;;;;;;;0.10;0.10;;;2.60;99.90;;;2.51;100.00;99376.97;5004972;28;20229;-74
2022/12/08 04:00:01;;;;;;;0.10;0.10;;;2.70;99.90;;;2.48;100.00;99383.84;4996314;28;20227;-73
2022/12/08 04:02:29;;;;;;;0.10;0.10;;;2.60;99.90;;;2.44;100.00;99374.16;5026114;23;20231;-77
2022/12/08 04:04:56;;;;;;;0.10;0.10;;;2.60;99.90;;;2.44;100.00;99382.88;4985437;28;20239;-78
2022/12/08 04:07:24;;;;;;;0.10;0.10;;;2.60;99.90;;;2.46;100.00;99373.38;5004790;28;20613;-77
2022/12/08 04:09:51;;;;;;;0.10;0.10;;;2.60;99.90;;;2.44;100.00;99371.56;4996999;28;20232;-78
2022/12/08 04:12:19;;;;;;;0.50;0.50;;;2.60;99.90;;;2.46;100.00;99373.38;5009622;28;20231;-78
2022/12/08 04:14:46;;;;;;;0.10;0.10;;;2.60;99.90;;;2.44;100.00;99372.44;4993121;28;20235;-78
2022/12/08 04:17:14;;;;;;;0.10;0.10;;;2.80;99.90;;;2.45;100.00;99365.50;5023024;28;20266;-75
2022/12/08 04:19:41;;;;;;;0.10;0.10;;;2.60;99.90;;;2.47;100.00;99379.47;5001959;28;20236;-77
2022/12/08 04:22:08;;;;;;;0.45;0.45;;;2.70;99.90;;;2.46;100.00;99369.88;5009614;28;20260;-77
2022/12/08 04:24:35;;;;;;;0.22;0.22;;;2.60;99.90;;;2.46;100.00;99370.75;4992115;28;20228;-76
2022/12/08 04:27:02;;;;;;;0.10;0.10;;;2.60;99.90;;;2.46;100.00;99368.16;5009011;28;20282;-76
2022/12/08 04:29:29;;;;;;;0.10;0.10;;;2.60;99.90;;;2.46;100.00;99378.59;5003640;28;20247;-76
2022/12/08 04:31:56;;;;;;;0.10;0.10;;;2.80;99.90;;;2.45;100.00;99382.03;5007202;28;20249;-77
2022/12/08 04:34:23;;;;;;;0.20;0.20;;;2.60;99.90;;;2.46;100.00;99372.47;5026493;28;20235;-78
2022/12/08 04:36:50;;;;;;;0.10;0.10;;;2.60;99.90;;;2.45;100.00;99371.59;5005177;28;20319;-79
2022/12/08 04:39:17;;;;;;;0.30;0.30;;;2.70;99.90;;;2.44;100.00;99374.16;5010226;28;20235;-78
2022/12/08 04:41:44;;;;;;;0.10;0.10;;;2.60;99.90;;;2.43;100.00;99370.69;4998658;28;20762;-78
2022/12/08 04:44:11;;;;;;;0.10;0.10;;;2.60;99.90;;;2.42;100.00;99365.44;5005072;28;20447;-79
2022/12/08 04:46:38;;;;;;;0.10;0.10;;;2.60;99.90;;;2.41;100.00;99372.38;4977476;28;20317;-78
2022/12/08 04:49:09;;;;;;;0.10;0.10;;;2.60;99.90;;;2.41;100.00;99369.75;5022837;28;20318;-78
2022/12/08 04:51:36;;;;;;;0.10;0.10;;;2.60;99.90;;;2.40;100.00;99361.91;5010079;28;20254;-78
2022/12/08 04:54:03;;;;;;;0.10;0.10;;;2.60;99.90;;;2.40;100.00;99370.59;5005269;28;20235;-78
2022/12/08 04:56:30;;;;;;;0.10;0.10;;;2.60;99.90;;;2.40;100.00;99369.72;5009054;28;20255;-79
2022/12/08 04:58:57;;;;;;;0.85;0.85;;;2.70;99.90;;;2.36;100.00;99360.94;5009166;28;20235;-78
2022/12/08 05:01:24;;;;;;;0.10;0.10;;;2.50;99.90;;;2.39;100.00;99367.97;5011965;28;20230;-80
2022/12/08 05:03:51;;;;;;;0.10;0.10;;;2.50;99.90;;;2.42;100.00;99370.66;5008852;28;20251;-78
2022/12/08 05:06:18;;;;;;;0.10;0.10;;;2.70;99.90;;;2.42;100.00;99374.13;4976136;28;20263;-78
2022/12/08 05:08:45;;;;;;;0.10;0.10;;;2.70;99.90;;;2.41;100.00;99368.88;4997965;28;20266;-79
2022/12/08 05:11:12;;;;;;;0.10;0.10;;;2.60;99.90;;;2.42;100.00;99370.66;4991857;28;20255;-77
2022/12/08 05:13:40;;;;;;;0.75;0.75;;;2.60;99.90;;;2.43;100.00;99372.41;5007040;28;20318;-78
2022/12/08 05:16:11;;;;;;;0.10;0.10;;;2.60;99.90;;;2.43;100.00;99369.81;5008964;28;20818;-78
2022/12/08 05:18:40;;;;;;;0.10;0.10;;;2.60;99.90;;;2.43;100.00;99381.13;5009055;28;20224;-78
2022/12/08 05:21:08;;;;;;;0.10;0.10;;;2.60;99.90;;;2.40;100.00;99362.78;5000991;28;20306;-78
2022/12/08 05:23:35;;;;;;;0.03;0.03;;;2.80;99.90;;;2.42;100.00;99362.81;4991983;28;20314;-78
2022/12/08 05:26:03;;;;;;;0.20;0.20;;;2.60;99.90;;;2.38;100.00;99366.19;5006270;28;20259;-80
2022/12/08 05:28:30;;;;;;;0.13;0.13;;;2.60;99.90;;;2.36;100.00;99358.34;5008820;28;20605;-77
2022/12/08 05:31:14;;;;;;;0.10;0.10;;;2.50;99.90;;;2.33;100.00;99353.03;5000086;28;20234;-78
2022/12/08 05:33:42;;;;;;;0.20;0.20;;;2.80;99.90;;;2.31;100.00;99359.06;4997901;28;20239;-78
2022/12/08 05:36:12;;;;;;;0.10;0.10;;;2.50;99.90;;;2.30;100.00;99362.53;5016091;28;20290;-77
2022/12/08 05:38:40;;;;;;;0.10;0.10;;;2.50;99.90;;;2.24;100.00;99358.03;4997687;28;20231;-76
2022/12/08 05:41:16;;;;;;;0.10;0.10;;;2.40;99.90;;;2.25;100.00;99355.47;5011395;28;20263;-76
2022/12/08 05:43:44;;;;;;;0.10;0.10;;;2.40;99.90;;;2.24;100.00;99358.03;5007019;28;21018;-75
2022/12/08 05:46:13;;;;;;;0.10;0.10;;;2.40;99.90;;;2.23;100.00;99353.66;4986219;28;20232;-76
2022/12/08 05:48:41;;;;;;;0.10;0.10;;;2.40;99.90;;;2.22;100.00;99347.56;5008225;28;20250;-76
2022/12/08 05:51:20;;;;;;;0.20;0.20;;;2.40;99.90;;;2.19;100.00;99347.47;5009791;28;20648;-78
2022/12/08 05:53:49;;;;;;;0.10;0.10;;;2.40;99.90;;;2.17;100.00;99346.56;5001040;28;20232;-76
2022/12/08 05:56:16;;;;;;;2.30;1.65;;;2.40;99.90;;;2.18;100.00;99345.72;5000944;28;20319;-76
2022/12/08 05:58:44;;;;;;;0.03;0.03;;;2.40;99.90;;;2.15;100.00;99342.16;4997512;28;20366;-76
2022/12/08 06:01:29;;;;;;;0.10;0.10;;;2.70;99.90;;;2.15;100.00;99348.25;4995858;28;20322;-76
2022/12/08 06:03:59;;;;;;;0.10;0.10;;;2.40;99.90;;;2.12;100.00;99352.50;5008126;28;20322;-76
2022/12/08 06:06:27;;;;;;;0.10;0.10;;;2.30;99.90;;;2.15;100.00;99357.81;5017497;28;20255;-77
2022/12/08 06:08:54;;;;;;;0.10;0.10;;;2.30;99.90;;;2.17;100.00;99361.34;5007971;28;20256;-78
2022/12/08 06:11:26;;;;;;;0.20;0.20;;;2.40;99.90;;;2.17;100.00;99353.50;5008325;28;20232;-78
2022/12/08 06:13:55;;;;;;;0.20;0.20;;;2.30;99.90;;;2.22;100.00;99357.13;5004512;28;20259;-77
2022/12/08 06:16:24;;;;;;;0.10;0.10;;;2.40;99.90;;;2.22;100.00;99359.72;5014003;28;20228;-77
2022/12/08 06:18:54;;;;;;;0.10;0.10;;;2.40;99.90;;;2.21;100.00;99358.84;5005773;28;20236;-76
2022/12/08 06:21:22;;;;;;;0.20;0.20;;;2.50;99.90;;;2.23;100.00;99359.75;5014878;28;20274;-77
2022/12/08 06:23:51;;;;;;;0.20;0.20;;;2.40;99.90;;;2.24;100.00;99358.03;5001745;28;20247;-76
2022/12/08 06:26:19;;;;;;;1.65;1.25;;;2.40;99.90;;;2.25;100.00;99365.00;5009695;28;20235;-76
2022/12/08 06:28:48;;;;;;;0.13;0.13;;;2.40;99.90;;;2.29;100.00;99374.69;4992685;28;20236;-76
2022/12/08 06:31:22;;;;;;;0.10;0.10;;;2.40;99.90;;;2.25;100.00;99368.50;5004179;28;20227;-78
2022/12/08 06:33:50;;;;;;;0.43;0.43;;;2.70;99.90;;;2.29;100.00;99373.78;5012161;28;20705;-74
2022/12/08 06:36:20;;;;;;;0.10;0.10;;;2.60;99.90;;;2.29;100.00;99377.28;5009360;28;20235;-74
2022/12/08 06:38:48;;;;;;;0.10;0.10;;;2.60;99.90;;;2.33;100.00;99376.53;5014114;28;20252;-74
2022/12/08 06:41:15;;;;;;;0.10;0.10;;;2.80;99.90;;;2.34;100.00;99390.44;5000653;28;20233;-74
2022/12/08 06:43:43;;;;;;;0.10;0.10;;;2.50;99.90;;;2.29;100.00;99376.41;4992475;28;20312;-74
2022/12/08 06:46:14;;;;;;;0.10;0.10;;;2.50;99.90;;;2.33;100.00;99375.63;5002528;28;20240;-75
2022/12/08 06:48:42;;;;;;;0.20;0.20;;;2.50;99.90;;;2.35;100.00;99389.59;5017650;28;20239;-75
2022/12/08 06:51:15;;;;;;;0.10;0.10;;;2.60;99.90;;;2.34;100.00;99390.44;5012733;28;20244;-75
2022/12/08 06:53:43;;;;;;;0.10;0.10;;;2.50;99.90;;;2.34;100.00;99393.06;5002463;28;20250;-76
2022/12/08 06:56:12;;;;;;;0.35;0.35;;;2.50;99.90;;;2.35;100.00;99394.81;4998129;28;20295;-76
2022/12/08 06:58:39;;;;;;;1.05;1.05;;;2.90;99.90;;;2.32;100.00;99385.19;5002788;28;20335;-76
2022/12/08 07:01:10;;;;;;;0.40;0.40;;;2.60;99.90;;;2.36;100.00;99391.38;5006110;28;20330;-76
2022/12/08 07:03:38;;;;;;;0.68;0.68;;;2.60;99.90;;;2.37;100.00;99398.34;4995120;28;20227;-77
2022/12/08 07:06:06;;;;;;;0.10;0.10;;;2.50;99.90;;;2.36;100.00;99396.59;5021429;28;20346;-76
2022/12/08 07:08:34;;;;;;;0.85;0.85;;;2.50;99.90;;;2.37;100.00;99396.63;5015049;28;20223;-77
2022/12/08 07:11:09;;;;;;;0.10;0.10;;;2.70;99.90;;;2.39;100.00;99401.88;5009637;28;20323;-76
2022/12/08 07:13:42;;;;;;;0.10;0.10;;;2.50;99.90;;;2.38;100.00;99402.72;5010008;28;20564;-76
2022/12/08 07:16:11;;;;;;;0.10;0.10;;;2.50;99.90;;;2.36;100.00;99394.84;5008642;28;20314;-77
2022/12/08 07:18:38;;;;;;;0.57;0.57;;;2.60;99.90;;;2.37;100.00;99403.56;5008311;28;20242;-75
2022/12/08 07:21:12;;;;;;;0.10;0.10;;;2.80;99.90;;;2.35;100.00;99397.44;4991582;28;20260;-76
2022/12/08 07:23:39;;;;;;;0.10;0.10;;;2.70;99.90;;;2.37;100.00;99401.84;5010856;28;20262;-75
2022/12/08 07:26:09;;;;;;;0.10;0.10;;;2.70;99.90;;;2.35;100.00;99400.03;5006718;28;20314;-77
2022/12/08 07:28:38;;;;;;;0.13;0.13;;;2.50;99.90;;;2.36;100.00;99401.81;4993414;28;20323;-75
2022/12/08 07:31:07;;;;;;;0.17;0.17;;;2.50;99.90;;;2.33;100.00;99393.91;5007943;28;20743;-76
2022/12/08 07:33:35;;;;;;;0.17;0.17;;;2.60;99.90;;;2.33;100.00;99399.13;5000108;28;20236;-76
2022/12/08 07:36:04;;;;;;;0.10;0.10;;;2.50;99.90;;;2.35;100.00;99397.44;5001739;28;20243;-75
2022/12/08 07:38:35;;;;;;;0.17;0.17;;;2.50;99.90;;;2.35;100.00;99400.03;4984236;28;20223;-76
2022/12/08 07:41:03;;;;;;;0.10;0.10;;;2.50;99.90;;;2.34;100.00;99404.38;5008182;28;20258;-76
2022/12/08 07:43:30;;;;;;;0.20;0.20;;;2.50;99.90;;;2.32;100.00;99397.34;5005722;28;20229;-75
2022/12/08 07:45:57;;;;;;;0.17;0.17;;;2.60;99.90;;;2.35;100.00;99400.03;4996456;28;20327;-75
2022/12/08 07:48:24;;;;;;;0.10;0.10;;;2.60;99.90;;;2.33;100.00;99386.06;5006098;28;20236;-76
2022/12/08 07:51:02;;;;;;;0.10;0.10;;;2.60;99.90;;;2.34;100.00;99393.06;5001285;28;20306;-77
2022/12/08 07:53:30;;;;;;;0.10;0.10;;;2.50;99.90;;;2.33;100.00;99397.38;4999981;28;20270;-76
2022/12/08 07:55:58;;;;;;;0.10;0.10;;;2.70;99.90;;;2.36;100.00;99401.81;4990010;28;20266;-76
2022/12/08 07:58:26;;;;;;;0.10;0.10;;;2.60;99.90;;;2.34;100.00;99398.28;5006695;28;20231;-76
2022/12/08 08:00:54;;;;;;;0.10;0.10;;;2.50;99.90;;;2.32;100.00;99398.22;5012732;28;20236;-76
2022/12/08 08:03:21;;;;;;;0.10;0.10;;;2.50;99.90;;;2.35;100.00;99405.25;5017361;28;20778;-80
2022/12/08 08:05:48;;;;;;;0.10;0.10;;;2.70;99.90;;;2.37;100.00;99404.44;4997609;28;20239;-76
2022/12/08 08:08:16;;;;;;;0.10;0.10;;;2.70;99.90;;;2.38;100.00;99405.34;5000938;28;20262;-77
2022/12/08 08:10:45;;;;;;;0.10;0.10;;;2.50;99.90;;;2.39;100.00;99409.72;5017733;28;20232;-76
2022/12/08 08:13:12;;;;;;;0.10;0.10;;;2.60;99.90;;;2.36;100.00;99409.63;5002006;28;20236;-76
2022/12/08 08:15:39;;;;;;;0.10;0.10;;;2.50;99.90;;;2.39;100.00;99417.53;5006684;28;20318;-76
2022/12/08 08:18:07;;;;;;;0.10;0.10;;;2.50;99.90;;;2.39;100.00;99405.38;5014857;28;20251;-76
2022/12/08 08:20:34;;;;;;;0.10;0.10;;;2.60;99.90;;;2.41;100.00;99411.50;5008692;28;20314;-75
2022/12/08 08:23:01;;;;;;;0.10;0.10;;;2.70;99.90;;;2.39;100.00;99407.09;5008431;28;20309;-75
2022/12/08 08:25:28;;;;;;;0.50;0.50;;;2.60;99.90;;;2.41;100.00;99408.91;5014549;28;20281;-75
2022/12/08 08:27:55;;;;;;;0.82;0.82;;;2.60;99.90;;;2.40;100.00;99417.56;5011707;28;20232;-75
2022/12/08 08:30:22;;;;;;;0.20;0.20;;;2.50;99.90;;;2.43;100.00;99411.53;4994022;28;20228;-74
2022/12/08 08:32:49;;;;;;;0.10;0.10;;;2.60;99.90;;;2.42;100.00;99409.78;5011303;28;20303;-75
2022/12/08 08:35:16;;;;;;;0.10;0.10;;;2.80;99.90;;;2.50;100.00;99416.97;4997703;28;20282;-75
2022/12/08 08:37:43;;;;;;;0.10;0.10;;;2.60;99.90;;;2.48;100.00;99421.25;5014974;28;20231;-75
2022/12/08 08:40:16;;;;;;;0.10;0.10;;;2.70;99.90;;;2.49;100.00;99423.03;4990162;28;20232;-74
2022/12/08 08:42:43;;;;;;;0.10;0.10;;;2.60;99.90;;;2.53;100.00;99418.75;4998042;28;20248;-75
2022/12/08 08:45:11;;;;;;;0.10;0.10;;;2.70;99.90;;;2.56;100.00;99422.31;5007534;28;20262;-75
2022/12/08 08:47:40;;;;;;;0.10;0.10;;;2.80;99.90;;;2.61;100.00;99422.47;5017945;28;20230;-75
2022/12/08 08:50:08;;;;;;;0.10;0.10;;;2.60;99.90;;;2.62;100.00;99424.22;5017360;28;20277;-75
2022/12/08 08:52:35;;;;;;;0.10;0.10;;;2.80;99.90;;;2.64;100.00;99424.28;5002485;28;20232;-75
2022/12/08 08:55:03;;;;;;;0.10;0.10;;;3.00;99.90;;;2.68;100.00;99423.50;4998063;28;20228;-74
2022/12/08 08:57:30;;;;;;;0.10;0.10;;;2.80;99.90;;;2.71;100.00;99426.19;5007095;28;20235;-75
2022/12/08 08:59:57;;;;;;;0.10;0.10;;;2.80;99.90;;;2.76;100.00;99427.19;5015648;28;20247;-75
2022/12/08 09:02:24;;;;;;;0.10;0.10;;;2.90;99.90;;;2.80;100.00;99421.19;5007801;28;20255;-75
2022/12/08 09:04:51;;;;;;;0.10;0.10;;;2.90;99.90;;;2.83;100.00;99426.47;5018977;28;20255;-75
2022/12/08 09:07:18;;;;;;;0.10;0.10;;;3.00;99.90;;;2.83;100.00;99421.25;5008018;28;20234;-75
2022/12/08 09:09:45;;;;;;;0.10;0.10;;;3.10;99.90;;;2.87;100.00;99430.94;4998433;28;20251;-75
2022/12/08 09:12:12;;;;;;;1.00;0.95;;;3.00;99.90;;;2.88;100.00;99422.25;5001073;28;20286;-75
2022/12/08 09:14:40;;;;;;;0.10;0.10;;;3.20;99.90;;;2.91;100.00;99424.03;5002917;28;20251;-75
2022/12/08 09:17:07;;;;;;;0.10;0.10;;;3.10;99.90;;;2.91;100.00;99426.66;5014902;28;20292;-75
2022/12/08 09:19:34;;;;;;;0.10;0.10;;;3.10;99.90;;;2.97;100.00;99422.47;5012231;28;20227;-75
2022/12/08 09:22:02;;;;;;;0.10;0.10;;;3.10;99.90;;;3.06;100.00;99422.66;5015869;28;20289;-75
2022/12/08 09:24:29;;;;;;;0.17;0.17;;;3.20;99.90;;;3.14;100.00;99435.91;4991166;28;20236;-75
2022/12/08 09:26:56;;;;;;;0.20;0.20;;;3.20;99.90;;;3.13;100.00;99432.41;5004584;28;20259;-75
2022/12/08 09:29:24;;;;;;;0.10;0.10;;;3.20;99.90;;;3.18;100.00;99432.50;4989345;28;20228;-75
2022/12/08 09:31:55;;;;;;;0.10;0.10;;;3.30;99.90;;;3.15;100.00;99427.22;4991430;28;20237;-75
2022/12/08 09:34:22;;;;;;;0.10;0.10;;;3.30;99.90;;;3.13;100.00;99423.69;5019661;28;20223;-75
2022/12/08 09:36:49;;;;;;;0.10;0.10;;;3.80;99.90;;;3.17;100.00;99420.28;5009128;28;20290;-75
2022/12/08 09:39:16;;;;;;;0.10;0.10;;;3.30;99.90;;;3.24;100.00;99419.56;4995386;28;20724;-74
2022/12/08 09:41:50;;;;;;;0.10;0.10;;;3.30;99.90;;;3.24;100.00;99421.31;5008292;28;20262;-74
2022/12/08 09:44:50;;;;;;;0.10;0.10;;;3.40;99.90;;;3.34;100.00;99428.50;4996321;28;20236;-76
2022/12/08 09:47:27;;;;;;;0.10;0.10;;;3.40;99.90;;;3.31;100.00;99426.69;5009823;28;20277;-76
2022/12/08 09:50:09;;;;;;;0.10;0.10;;;3.40;99.90;;;3.31;100.00;99426.69;4984822;28;20325;-76
2022/12/08 09:52:57;;;;;;;0.10;0.10;;;3.50;99.90;;;3.35;100.00;99428.53;5014837;28;20303;-76
2022/12/08 09:55:38;;;;;;;0.10;0.10;;;3.50;99.90;;;3.35;100.00;99430.25;5024209;28;20236;-77
2022/12/08 09:58:21;;;;;;;0.10;0.10;;;3.50;99.90;;;3.39;100.00;99425.13;5006797;28;20232;-75
2022/12/08 10:00:48;;;;;;;0.35;0.35;;;3.50;99.90;;;3.44;100.00;99422.63;4995008;28;20308;-75
2022/12/08 10:03:15;;;;;;;0.20;0.20;;;3.60;99.90;;;3.47;100.00;99415.72;5001438;28;20266;-75
2022/12/08 10:06:04;;;;;;;0.10;0.10;;;3.60;99.90;;;3.58;100.00;99420.28;4985783;28;20300;-75
2022/12/08 10:09:31;;;;;;;0.10;0.10;;;3.70;99.90;;;3.62;100.00;99415.16;4984103;28;20589;-75
2022/12/08 10:12:45;;;;;;;0.10;0.10;;;3.70;99.90;;;3.72;100.00;99411.00;5002901;28;20240;-75
2022/12/08 10:15:38;;;;;;;0.65;0.65;;;3.80;99.90;;;3.81;100.00;99416.41;4946640;28;20228;-76
2022/12/08 10:18:24;;;;;;;0.10;0.10;;;3.90;99.90;;;3.80;100.00;99414.63;4965578;28;20240;-76
2022/12/08 10:20:51;;;;;;;0.10;0.10;;;3.90;99.90;;;3.79;100.00;99412.88;4980246;28;20228;-75
2022/12/08 10:23:29;;;;;;;0.10;0.10;;;4.10;99.90;;;3.84;100.00;99409.50;5007452;28;20220;-74
2022/12/08 10:26:17;;;;;;;0.43;0.43;;;4.00;99.90;;;3.93;100.00;99416.69;4981113;28;20232;-75
2022/12/08 10:28:44;;;;;;;0.13;0.13;;;4.00;99.90;;;3.91;100.00;99407.03;5000601;28;20234;-75
2022/12/08 10:31:24;;;;;;;0.10;0.10;;;4.00;99.90;;;3.86;100.00;99399.06;5012289;28;20236;-75
2022/12/08 10:34:18;;;;;;;0.10;0.10;;;4.00;99.90;;;3.90;100.00;99400.00;5000699;28;20234;-75
2022/12/08 10:36:56;;;;;;;0.10;0.10;;;4.00;99.90;;;3.99;100.00;99405.44;5002346;28;20232;-76
2022/12/08 10:39:42;;;;;;;0.10;0.10;;;4.10;99.90;;;3.97;100.00;99392.34;4994712;28;20255;-74
2022/12/08 10:42:13;;;;;;;0.10;0.10;;;4.10;99.90;;;3.96;100.00;99394.94;5005168;28;20239;-75
2022/12/08 10:45:14;;;;;;;0.10;0.10;;;4.10;99.90;;;3.98;100.00;99390.59;4990998;28;20738;-74
2022/12/08 10:47:54;;;;;;;0.38;0.38;;;4.10;99.90;;;4.08;100.00;99396.03;5003724;28;20235;-75
2022/12/08 10:50:31;;;;;;;0.10;0.10;;;4.20;99.90;;;4.00;100.00;99381.06;5003335;28;20322;-75
2022/12/08 10:53:12;;;;;;;0.10;0.10;;;4.20;99.90;;;4.08;100.00;99382.06;5010289;28;20259;-76